Time;durP1;ratioP1;P1;durP2;ratioP2;P2;SDS_P1;SDS_P2;PMS_P1;PMS_P2;Temp;Humidity;BMP_temperature;BMP_pressure;BME280_temperature;BME280_humidity;BME280_pressure;Samples;Min_cycle;Max_cycle;Signal;HPM_P1;HPM_P2
2023/07/12 00:01:30;;;;;;;3.97;2.08;;;27.40;75.00;;;;;;7381943;19;20007;-73
2023/07/12 00:04:02;;;;;;;6.50;2.38;;;27.40;75.20;;;;;;7384119;19;20311;-74
2023/07/12 00:06:36;;;;;;;4.63;2.17;;;27.40;75.20;;;;;;7382415;19;20048;-73
2023/07/12 00:09:05;;;;;;;4.43;2.10;;;27.40;75.10;;;;;;7378313;19;20003;-74
2023/07/12 00:11:34;;;;;;;7.80;2.40;;;27.40;75.10;;;;;;7377443;19;20784;-75
2023/07/12 00:14:02;;;;;;;6.75;2.50;;;27.40;75.20;;;;;;7402565;19;20027;-75
2023/07/12 00:16:36;;;;;;;6.57;2.65;;;27.30;75.30;;;;;;7375891;19;20003;-74
2023/07/12 00:22:19;;;;;;;6.93;2.45;;;27.20;75.70;;;;;;7375938;19;20103;-75
2023/07/12 00:24:47;;;;;;;10.00;5.15;;;27.20;75.90;;;;;;7383978;19;20009;-73
2023/07/12 00:27:16;;;;;;;5.05;3.00;;;27.10;75.80;;;;;;7383315;19;20003;-75
2023/07/12 00:29:45;;;;;;;7.72;3.47;;;27.10;75.90;;;;;;7384185;19;20076;-74
2023/07/12 00:32:13;;;;;;;9.32;3.03;;;27.10;75.80;;;;;;7381748;19;20243;-75
2023/07/12 00:34:43;;;;;;;4.47;2.13;;;27.20;76.70;;;;;;7404739;19;20020;-75
2023/07/12 00:37:16;;;;;;;9.10;2.33;;;27.20;75.60;;;;;;7384713;19;20007;-74
2023/07/12 00:39:48;;;;;;;8.10;2.50;;;27.20;75.70;;;;;;7382925;19;20369;-75
2023/07/12 00:42:25;;;;;;;7.32;2.30;;;27.20;75.50;;;;;;7385640;19;20007;-74
2023/07/12 00:44:59;;;;;;;3.95;2.03;;;27.10;75.70;;;;;;7382211;19;20386;-75
2023/07/12 00:47:30;;;;;;;7.68;2.08;;;27.10;76.10;;;;;;7381866;19;20019;-74
2023/07/12 00:49:58;;;;;;;8.27;2.20;;;27.00;76.10;;;;;;7404586;19;20228;-75
2023/07/12 00:52:28;;;;;;;7.40;2.30;;;27.00;76.20;;;;;;7384850;19;20003;-75
2023/07/12 00:55:01;;;;;;;3.95;2.30;;;26.90;76.40;;;;;;7385886;19;20048;-75
2023/07/12 00:57:31;;;;;;;7.53;2.35;;;26.90;76.70;;;;;;7382551;19;20051;-75
2023/07/12 01:00:04;;;;;;;5.88;2.08;;;26.80;76.60;;;;;;7382026;19;20013;-75
2023/07/12 01:02:33;;;;;;;4.47;2.10;;;26.80;76.80;;;;;;7385687;19;20011;-75
2023/07/12 01:05:03;;;;;;;6.60;2.42;;;26.80;76.90;;;;;;7409958;19;20007;-75
2023/07/12 01:07:34;;;;;;;3.95;2.17;;;26.80;76.60;;;;;;7382387;19;20030;-75
2023/07/12 01:10:08;;;;;;;11.27;2.35;;;26.80;76.90;;;;;;7381715;19;20037;-75
2023/07/12 01:12:36;;;;;;;9.20;2.60;;;26.80;77.10;;;;;;7384566;19;20289;-75
2023/07/12 01:15:14;;;;;;;4.63;2.63;;;26.70;77.00;;;;;;7383165;19;20003;-75
2023/07/12 01:17:43;;;;;;;8.80;2.20;;;26.80;76.90;;;;;;7383092;19;20591;-75
2023/07/12 01:20:13;;;;;;;8.38;2.25;;;26.80;76.90;;;;;;7381122;19;20010;-75
2023/07/12 01:22:44;;;;;;;3.65;1.95;;;26.80;77.00;;;;;;7405878;19;20014;-75
2023/07/12 01:25:14;;;;;;;12.02;2.42;;;26.70;76.90;;;;;;7383438;19;20024;-75
2023/07/12 01:27:43;;;;;;;8.52;1.92;;;26.60;76.90;;;;;;7391464;19;20399;-76
2023/07/12 01:30:12;;;;;;;6.20;2.20;;;26.60;77.60;;;;;;7382666;19;20002;-76
2023/07/12 01:32:42;;;;;;;4.15;2.00;;;26.40;76.50;;;;;;7381133;19;20006;-75
2023/07/12 01:35:11;;;;;;;12.75;1.90;;;26.30;76.20;;;;;;7382466;19;20014;-75
2023/07/12 01:37:45;;;;;;;7.75;1.75;;;26.30;76.20;;;;;;7402068;19;20030;-75
2023/07/12 01:40:15;;;;;;;5.28;1.88;;;26.20;75.70;;;;;;7386186;19;20027;-75
2023/07/12 01:42:43;;;;;;;4.90;1.65;;;26.30;75.60;;;;;;7381881;19;20258;-76
2023/07/12 01:45:13;;;;;;;2.90;1.52;;;26.20;75.50;;;;;;7385825;19;20224;-76
2023/07/12 01:47:43;;;;;;;6.22;1.70;;;26.20;75.40;;;;;;7387345;19;20375;-76
2023/07/12 01:50:12;;;;;;;2.75;1.52;;;26.20;75.50;;;;;;7388099;19;20017;-76
2023/07/12 01:52:41;;;;;;;7.57;1.67;;;26.20;75.80;;;;;;7411241;19;20024;-76
2023/07/12 01:55:12;;;;;;;5.65;1.58;;;26.10;75.00;;;;;;7388854;19;20024;-75
2023/07/12 01:57:41;;;;;;;2.13;1.40;;;26.00;74.90;;;;;;7397999;19;20026;-76
2023/07/12 02:00:11;;;;;;;5.72;1.50;;;26.00;74.20;;;;;;7400935;19;20086;-76
2023/07/12 02:02:41;;;;;;;3.07;1.20;;;25.90;73.70;;;;;;7394914;19;20368;-75
2023/07/12 02:05:10;;;;;;;2.17;1.13;;;25.90;73.70;;;;;;7395505;19;20279;-71
2023/07/12 02:07:40;;;;;;;3.25;1.33;;;25.70;74.10;;;;;;7408918;19;20031;-76
2023/07/12 02:10:17;;;;;;;3.20;1.27;;;25.40;74.60;;;;;;7381175;19;20010;-76
2023/07/12 02:12:46;;;;;;;2.53;1.10;;;25.30;75.00;;;;;;7382468;19;20009;-76
2023/07/12 02:15:16;;;;;;;1.77;1.20;;;25.40;75.00;;;;;;7381070;19;20246;-76
2023/07/12 02:17:46;;;;;;;2.72;1.30;;;25.20;75.30;;;;;;7380103;19;20010;-76
2023/07/12 02:20:15;;;;;;;4.72;2.53;;;25.20;75.40;;;;;;7382212;19;20030;-76
2023/07/12 02:22:44;;;;;;;4.32;2.08;;;25.30;75.60;;;;;;7400884;19;20003;-76
2023/07/12 02:25:16;;;;;;;3.50;1.13;;;25.30;75.50;;;;;;7380173;19;20051;-75
2023/07/12 02:27:46;;;;;;;2.83;1.20;;;25.40;75.30;;;;;;7380353;19;20014;-75
2023/07/12 02:30:17;;;;;;;6.03;1.08;;;25.50;74.90;;;;;;7379836;19;20013;-75
2023/07/12 02:32:46;;;;;;;;;;;25.40;75.20;;;;;;7379978;19;20002;-75
2023/07/12 02:35:15;;;;;;;1.98;1.02;;;25.40;75.10;;;;;;7382606;19;19914;-75
2023/07/12 02:37:44;;;;;;;6.32;0.80;;;25.40;75.00;;;;;;7404622;19;20010;-75
2023/07/12 02:40:16;;;;;;;1.77;0.80;;;25.40;74.90;;;;;;7383023;19;20055;-76
2023/07/12 02:42:45;;;;;;;1.33;0.90;;;25.30;74.80;;;;;;7380095;19;20007;-77
2023/07/12 02:45:15;;;;;;;1.67;0.75;;;25.10;75.00;;;;;;7379100;19;20011;-76
2023/07/12 02:47:44;;;;;;;0.60;0.47;;;25.00;75.20;;;;;;7378421;19;20219;-77
2023/07/12 02:50:13;;;;;;;2.75;0.90;;;24.80;75.70;;;;;;7379546;19;20324;-77
2023/07/12 02:52:42;;;;;;;1.77;0.65;;;24.70;76.30;;;;;;7406926;19;20351;-77
2023/07/12 02:55:11;;;;;;;3.80;0.93;;;24.60;76.70;;;;;;7380044;19;20504;-75
2023/07/12 02:57:42;;;;;;;1.80;0.70;;;24.60;76.90;;;;;;7379014;19;20006;-76
2023/07/12 03:00:12;;;;;;;2.15;0.77;;;24.60;76.70;;;;;;7379113;19;20014;-77
2023/07/12 03:02:41;;;;;;;0.52;0.50;;;24.70;76.80;;;;;;7378372;19;20007;-77
2023/07/12 03:05:10;;;;;;;1.05;0.70;;;24.70;76.90;;;;;;7386182;19;20017;-77
2023/07/12 03:07:40;;;;;;;4.07;0.98;;;24.80;76.80;;;;;;7398962;19;20002;-76
2023/07/12 03:10:10;;;;;;;1.48;0.75;;;24.90;76.60;;;;;;7379910;19;20024;-76
2023/07/12 03:12:41;;;;;;;0.90;0.70;;;25.00;76.50;;;;;;7378508;19;20010;-77
2023/07/12 03:15:11;;;;;;;2.22;0.82;;;25.00;76.20;;;;;;7378375;19;20376;-77
2023/07/12 03:17:40;;;;;;;3.55;0.90;;;25.00;76.10;;;;;;7377449;19;20237;-76
2023/07/12 03:20:10;;;;;;;1.83;1.00;;;24.90;76.60;;;;;;7399637;19;20019;-77
2023/07/12 03:22:39;;;;;;;3.67;1.30;;;24.90;76.80;;;;;;7378513;19;19999;-77
2023/07/12 03:26:07;;;;;;;2.55;0.90;;;24.70;76.60;;;;;;7381392;19;20002;-79
2023/07/12 03:28:38;;;;;;;5.97;1.02;;;24.60;77.10;;;;;;7378109;19;20038;-77
2023/07/12 03:31:22;;;;;;;5.43;1.63;;;24.50;77.00;;;;;;7376404;19;20027;-77
2023/07/12 03:33:51;;;;;;;5.65;1.42;;;24.40;75.40;;;;;;7377253;19;20402;-77
2023/07/12 03:36:24;;;;;;;9.02;1.35;;;24.10;75.90;;;;;;7377014;19;20037;-77
2023/07/12 03:38:53;;;;;;;5.13;1.33;;;24.10;76.20;;;;;;7377378;19;20032;-77
2023/07/12 03:41:23;;;;;;;3.67;1.50;;;24.10;76.00;;;;;;7380809;19;20007;-77
2023/07/12 03:43:54;;;;;;;4.00;1.73;;;24.30;75.70;;;;;;7411105;19;20010;-77
2023/07/12 03:46:23;;;;;;;8.50;1.50;;;24.30;74.80;;;;;;7382750;19;20007;-77
2023/07/12 03:48:52;;;;;;;4.00;1.33;;;24.10;73.70;;;;;;7375947;19;20013;-77
2023/07/12 03:51:22;;;;;;;4.95;1.73;;;23.70;74.10;;;;;;7375211;19;20382;-77
2023/07/12 03:53:51;;;;;;;4.68;1.75;;;23.70;74.70;;;;;;7378405;19;20014;-77
2023/07/12 03:56:20;;;;;;;6.65;1.60;;;23.80;74.40;;;;;;7376028;19;20024;-76
2023/07/12 03:58:49;;;;;;;7.70;1.55;;;23.60;74.60;;;;;;7400565;19;20385;-76
2023/07/12 04:01:20;;;;;;;7.38;1.80;;;23.60;74.50;;;;;;7383953;19;20418;-76
2023/07/12 04:03:49;;;;;;;7.65;1.70;;;23.50;74.60;;;;;;7386004;19;20038;-76
2023/07/12 04:06:18;;;;;;;7.05;1.85;;;23.50;75.00;;;;;;7407655;19;20003;-77
2023/07/12 04:08:47;;;;;;;10.35;2.15;;;23.60;75.00;;;;;;7391179;19;20010;-76
2023/07/12 04:11:26;;;;;;;6.70;1.92;;;23.60;74.80;;;;;;7384725;19;20007;-76
2023/07/12 04:13:56;;;;;;;9.98;2.05;;;23.60;75.30;;;;;;7403899;19;20007;-76
2023/07/12 04:16:28;;;;;;;10.40;2.10;;;23.70;75.60;;;;;;7384268;19;20006;-76
2023/07/12 04:18:57;;;;;;;8.10;1.55;;;23.90;74.90;;;;;;7387887;19;20024;-76
2023/07/12 04:21:27;;;;;;;8.35;1.98;;;24.00;74.50;;;;;;7385144;19;20020;-75
2023/07/12 04:23:56;;;;;;;8.57;2.00;;;24.10;74.30;;;;;;7382257;19;20006;-72
2023/07/12 04:26:25;;;;;;;6.60;1.80;;;23.90;74.20;;;;;;7384395;19;20822;-70
2023/07/12 04:28:57;;;;;;;5.85;1.48;;;24.00;74.90;;;;;;7406115;19;20074;-76
2023/07/12 04:31:31;;;;;;;10.45;1.73;;;24.00;74.00;;;;;;7382293;19;20437;-72
2023/07/12 04:34:00;;;;;;;7.28;2.15;;;24.10;74.10;;;;;;7384592;19;20018;-75
2023/07/12 04:36:31;;;;;;;9.90;2.00;;;24.10;73.80;;;;;;7384029;19;20023;-73
2023/07/12 04:39:00;;;;;;;7.78;1.77;;;24.30;74.00;;;;;;7384565;19;20029;-74
2023/07/12 04:41:29;;;;;;;7.38;1.90;;;24.30;73.70;;;;;;7384018;19;20093;-74
2023/07/12 04:44:01;;;;;;;13.38;2.13;;;24.20;73.10;;;;;;7405328;19;20027;-74
2023/07/12 04:46:32;;;;;;;7.10;1.75;;;24.00;73.80;;;;;;7383019;19;19999;-74
2023/07/12 04:49:00;;;;;;;;;;;23.80;74.30;;;;;;7382782;19;20006;-74
2023/07/12 04:51:30;;;;;;;10.30;1.80;;;23.70;74.40;;;;;;7382745;19;20218;-75
2023/07/12 04:54:01;;;;;;;6.13;1.77;;;23.60;74.90;;;;;;7385290;19;20022;-75
2023/07/12 04:56:29;;;;;;;14.20;2.13;;;23.60;75.20;;;;;;7382002;19;20079;-74
2023/07/12 04:58:58;;;;;;;6.85;1.77;;;23.50;75.30;;;;;;7403246;19;20066;-75
2023/07/12 05:01:31;;;;;;;7.55;2.03;;;23.50;75.00;;;;;;7382259;19;20373;-75
2023/07/12 05:04:02;;;;;;;9.50;1.80;;;23.60;75.20;;;;;;7382612;19;20228;-75
2023/07/12 05:06:31;;;;;;;9.23;2.28;;;23.40;75.00;;;;;;7382072;19;20013;-75
2023/07/12 05:08:59;;;;;;;10.38;1.90;;;23.20;75.70;;;;;;7383489;19;20003;-75
2023/07/12 05:11:28;;;;;;;8.60;1.90;;;23.20;76.00;;;;;;7384983;19;20059;-75
2023/07/12 05:13:57;;;;;;;6.13;2.08;;;23.40;76.00;;;;;;7410370;19;20010;-75
2023/07/12 05:16:26;;;;;;;9.07;1.95;;;23.40;75.50;;;;;;7387643;19;20315;-75
2023/07/12 05:18:57;;;;;;;9.32;2.10;;;23.20;75.40;;;;;;7387140;19;20016;-75
2023/07/12 05:21:26;;;;;;;;;;;23.00;76.10;;;;;;7388959;19;20006;-75
2023/07/12 05:23:55;;;;;;;6.57;1.90;;;23.20;75.80;;;;;;7388686;19;19927;-75
2023/07/12 05:26:24;;;;;;;10.55;1.80;;;22.90;75.90;;;;;;7388547;19;20304;-75
2023/07/12 05:28:53;;;;;;;7.47;1.85;;;22.80;76.40;;;;;;7409009;19;20011;-74
2023/07/12 05:31:21;;;;;;;10.13;1.77;;;22.80;76.30;;;;;;7383982;19;20003;-75
2023/07/12 05:33:52;;;;;;;5.35;1.80;;;23.00;76.00;;;;;;7387275;19;20023;-75
2023/07/12 05:36:23;;;;;;;9.13;2.00;;;23.00;75.40;;;;;;7385720;19;20010;-73
2023/07/12 05:38:53;;;;;;;8.18;1.85;;;23.10;75.10;;;;;;7382442;19;20019;-73
2023/07/12 05:41:22;;;;;;;6.93;1.95;;;23.20;74.50;;;;;;7382462;19;20022;-73
2023/07/12 05:43:50;;;;;;;6.68;1.35;;;23.20;74.20;;;;;;7403129;19;20027;-74
2023/07/12 05:46:19;;;;;;;11.32;2.00;;;23.20;74.00;;;;;;7380477;19;20006;-74
2023/07/12 05:48:48;;;;;;;8.50;2.08;;;23.10;74.10;;;;;;7381005;19;20136;-74
2023/07/12 05:51:16;;;;;;;9.00;1.80;;;23.30;74.10;;;;;;7380825;19;20075;-74
2023/07/12 05:53:48;;;;;;;8.60;1.48;;;23.50;74.00;;;;;;7382509;19;20062;-74
2023/07/12 05:56:16;;;;;;;;;;;23.60;74.40;;;;;;7383798;19;20228;-74
2023/07/12 05:58:45;;;;;;;7.85;1.60;;;23.70;73.40;;;;;;7421822;19;19914;-74
2023/07/12 06:01:14;;;;;;;3.83;1.58;;;23.80;72.80;;;;;;7380907;19;20067;-74
2023/07/12 06:03:44;;;;;;;14.77;2.08;;;23.80;72.60;;;;;;7380061;19;20078;-74
2023/07/12 06:06:13;;;;;;;11.68;1.85;;;23.70;72.60;;;;;;7380750;19;20002;-73
2023/07/12 06:08:43;;;;;;;9.82;1.60;;;23.70;73.30;;;;;;7381070;19;20011;-73
2023/07/12 06:11:14;;;;;;;9.95;1.85;;;23.70;73.10;;;;;;7378902;19;20010;-74
2023/07/12 06:13:42;;;;;;;;;;;23.60;73.20;;;;;;7402737;19;20019;-74
2023/07/12 06:16:11;;;;;;;15.57;2.15;;;23.50;72.70;;;;;;7380137;19;19927;-74
2023/07/12 06:18:40;;;;;;;9.25;2.15;;;23.60;73.00;;;;;;7381528;19;20011;-74
2023/07/12 06:21:09;;;;;;;8.63;2.10;;;23.60;73.30;;;;;;7383707;19;20011;-74
2023/07/12 06:23:38;;;;;;;6.93;2.20;;;23.60;73.20;;;;;;7405365;19;20029;-74
2023/07/12 06:26:07;;;;;;;12.00;2.00;;;23.60;73.40;;;;;;7408626;19;20011;-74
2023/07/12 06:28:38;;;;;;;8.98;2.00;;;23.70;74.10;;;;;;7380733;19;20219;-74
2023/07/12 06:31:08;;;;;;;;;;;23.70;72.70;;;;;;7380999;19;20010;-75
2023/07/12 06:33:38;;;;;;;8.98;2.08;;;23.70;72.80;;;;;;7380537;19;19907;-75
2023/07/12 06:36:08;;;;;;;7.78;1.90;;;23.60;73.10;;;;;;7379068;19;20020;-74
2023/07/12 06:38:37;;;;;;;11.27;2.00;;;23.80;72.90;;;;;;7380110;19;20007;-75
2023/07/12 06:41:06;;;;;;;10.40;2.00;;;23.90;72.60;;;;;;7401854;19;20034;-75
2023/07/12 06:43:38;;;;;;;16.83;2.03;;;23.90;71.60;;;;;;7380173;19;20019;-75
2023/07/12 06:46:06;;;;;;;;;;;23.60;71.80;;;;;;7380139;19;20077;-75
2023/07/12 06:48:35;;;;;;;10.02;2.00;;;23.20;72.60;;;;;;7379783;19;19928;-75
2023/07/12 06:51:04;;;;;;;10.30;1.80;;;23.30;73.00;;;;;;7379723;19;20007;-75
2023/07/12 06:53:34;;;;;;;11.05;2.00;;;23.50;72.40;;;;;;7379882;19;20007;-75
2023/07/12 06:56:03;;;;;;;11.35;1.77;;;23.60;72.80;;;;;;7400961;19;20364;-75
2023/07/12 06:58:32;;;;;;;6.90;1.67;;;23.60;72.20;;;;;;7378647;19;20349;-74
2023/07/12 07:01:08;;;;;;;9.52;1.80;;;23.40;72.40;;;;;;7379101;19;20010;-75
2023/07/12 07:03:37;;;;;;;9.13;2.00;;;23.20;72.50;;;;;;7379392;19;20098;-75
2023/07/12 07:06:06;;;;;;;8.57;1.88;;;23.30;72.50;;;;;;7379239;19;20007;-75
2023/07/12 07:08:35;;;;;;;9.77;1.70;;;23.40;72.00;;;;;;7377734;19;20006;-75
2023/07/12 07:11:04;;;;;;;7.53;1.70;;;23.40;71.30;;;;;;7401267;19;20086;-75
2023/07/12 07:13:33;;;;;;;5.63;1.58;;;23.20;71.00;;;;;;7379028;19;20003;-75
2023/07/12 07:16:05;;;;;;;9.65;1.83;;;23.20;71.30;;;;;;7378525;19;20061;-75
2023/07/12 07:18:34;;;;;;;4.68;1.50;;;23.30;72.00;;;;;;7379364;19;20007;-75
2023/07/12 07:21:06;;;;;;;7.47;1.60;;;23.30;71.00;;;;;;7378183;19;20013;-75
2023/07/12 07:23:36;;;;;;;11.18;1.95;;;23.40;70.70;;;;;;7377419;19;20262;-75
2023/07/12 07:26:06;;;;;;;6.85;1.77;;;23.50;70.50;;;;;;7400278;19;20010;-75
2023/07/12 07:28:37;;;;;;;7.43;1.67;;;23.40;71.00;;;;;;7378274;19;20365;-75
2023/07/12 07:31:10;;;;;;;4.25;1.52;;;23.20;71.30;;;;;;7377864;19;20003;-75
2023/07/12 07:33:40;;;;;;;7.43;1.40;;;23.30;70.80;;;;;;7385369;19;20010;-75
2023/07/12 07:36:11;;;;;;;6.63;1.55;;;23.20;70.90;;;;;;7385780;19;20015;-74
2023/07/12 07:38:40;;;;;;;9.68;1.88;;;23.10;70.80;;;;;;7386363;19;20013;-74
2023/07/12 07:41:11;;;;;;;6.40;1.90;;;23.00;71.10;;;;;;7407297;19;20023;-75
2023/07/12 07:43:44;;;;;;;5.20;1.50;;;23.20;71.30;;;;;;7386149;19;19999;-74
2023/07/12 07:46:17;;;;;;;6.70;1.70;;;23.00;70.90;;;;;;7386033;19;19999;-74
2023/07/12 07:48:45;;;;;;;7.13;1.88;;;22.90;72.00;;;;;;7384487;19;20007;-74
2023/07/12 07:51:16;;;;;;;7.03;1.38;;;23.40;71.70;;;;;;7385516;19;20043;-75
2023/07/12 07:53:45;;;;;;;8.50;1.95;;;23.50;70.40;;;;;;7383522;19;20307;-74
2023/07/12 07:56:14;;;;;;;6.50;2.05;;;23.40;70.50;;;;;;7385675;19;20071;-74
2023/07/12 07:58:44;;;;;;;9.90;1.80;;;23.60;70.80;;;;;;7403805;19;20042;-74
2023/07/12 08:01:16;;;;;;;4.20;1.30;;;23.70;69.60;;;;;;7384939;19;20385;-74
2023/07/12 08:03:44;;;;;;;;;;;23.90;68.70;;;;;;7386362;19;20029;-74
2023/07/12 08:06:13;;;;;;;10.95;2.17;;;23.70;69.30;;;;;;7385935;19;19911;-73
2023/07/12 08:08:42;;;;;;;8.20;1.50;;;23.80;68.80;;;;;;7382850;19;20331;-73
2023/07/12 08:11:12;;;;;;;9.93;2.00;;;23.80;68.90;;;;;;7385112;19;20015;-75
2023/07/12 08:13:41;;;;;;;6.63;1.33;;;23.90;68.90;;;;;;7406980;19;20015;-75
2023/07/12 08:16:11;;;;;;;5.30;1.38;;;23.90;68.80;;;;;;7385502;19;20007;-75
2023/07/12 08:18:43;;;;;;;3.72;1.30;;;24.10;68.10;;;;;;7388152;19;20011;-75
2023/07/12 08:21:11;;;;;;;;;;;24.10;67.50;;;;;;7404252;19;20003;-75
2023/07/12 08:23:40;;;;;;;6.32;1.63;;;24.00;67.10;;;;;;7385114;19;19907;-75
2023/07/12 08:26:08;;;;;;;6.88;1.42;;;24.00;66.50;;;;;;7406627;19;20257;-75
2023/07/12 08:28:37;;;;;;;7.28;1.48;;;24.10;66.50;;;;;;7383963;19;20024;-74
2023/07/12 08:31:06;;;;;;;7.00;1.67;;;24.20;66.30;;;;;;7383137;19;20010;-75
2023/07/12 08:33:35;;;;;;;9.27;1.67;;;24.10;67.10;;;;;;7383409;19;20018;-75
2023/07/12 08:36:06;;;;;;;6.45;1.30;;;24.10;66.90;;;;;;7383623;19;20025;-75
2023/07/12 08:38:36;;;;;;;7.45;1.40;;;23.80;66.30;;;;;;7382856;19;20006;-74
2023/07/12 08:41:16;;;;;;;7.47;1.52;;;23.70;65.90;;;;;;7415381;19;20007;-74
2023/07/12 08:43:44;;;;;;;8.35;1.60;;;23.50;66.50;;;;;;7401528;19;20013;-74
2023/07/12 08:46:18;;;;;;;5.07;1.30;;;23.50;67.70;;;;;;7391561;19;20010;-74
2023/07/12 08:48:51;;;;;;;6.10;1.80;;;23.60;67.80;;;;;;7388103;19;20028;-74
2023/07/12 08:51:28;;;;;;;10.18;1.63;;;23.70;67.80;;;;;;7391971;19;20010;-75
2023/07/12 08:53:57;;;;;;;3.53;1.00;;;23.80;67.70;;;;;;7394594;19;20016;-75
2023/07/12 08:56:27;;;;;;;2.50;0.90;;;23.80;66.10;;;;;;7389722;19;20025;-75
2023/07/12 08:58:56;;;;;;;4.10;0.98;;;23.90;64.40;;;;;;7411282;19;20378;-75
2023/07/12 09:01:46;;;;;;;5.25;1.15;;;23.60;64.30;;;;;;7390330;19;20019;-74
2023/07/12 09:04:33;;;;;;;3.92;1.20;;;23.60;64.30;;;;;;7389214;19;20086;-75
2023/07/12 09:07:08;;;;;;;6.45;1.55;;;23.60;65.60;;;;;;7390534;19;20278;-75
2023/07/12 09:09:41;;;;;;;3.10;1.02;;;23.70;65.20;;;;;;7389157;19;20002;-75
2023/07/12 09:12:25;;;;;;;3.10;0.98;;;23.50;66.20;;;;;;7382518;19;20010;-75
2023/07/12 09:14:56;;;;;;;11.07;1.17;;;23.70;65.40;;;;;;7383810;19;20070;-75
2023/07/12 09:17:27;;;;;;;3.63;0.93;;;23.70;64.30;;;;;;7382696;19;20014;-75
2023/07/12 09:19:56;;;;;;;5.10;1.15;;;23.70;64.10;;;;;;7407789;19;20375;-75
2023/07/12 09:22:30;;;;;;;9.85;1.58;;;23.90;63.80;;;;;;7383953;19;20006;-75
2023/07/12 09:25:01;;;;;;;6.65;1.00;;;23.90;64.10;;;;;;7383260;19;20436;-75
2023/07/12 09:27:31;;;;;;;7.10;1.10;;;24.30;64.80;;;;;;7383685;19;20006;-75
2023/07/12 09:30:04;;;;;;;9.38;1.30;;;24.60;63.00;;;;;;7383351;19;20013;-75
2023/07/12 09:32:34;;;;;;;3.75;0.90;;;24.40;63.20;;;;;;7382389;19;20014;-75
2023/07/12 09:35:05;;;;;;;5.60;1.13;;;24.70;63.20;;;;;;7401746;19;20433;-75
2023/07/12 09:37:40;;;;;;;4.63;1.10;;;24.40;62.50;;;;;;7382743;19;20006;-75
2023/07/12 09:40:19;;;;;;;6.90;1.13;;;24.30;61.70;;;;;;7381760;19;20006;-75
2023/07/12 09:42:51;;;;;;;5.70;1.35;;;24.60;61.10;;;;;;7382815;19;20372;-75
2023/07/12 09:45:20;;;;;;;4.45;1.15;;;24.60;61.40;;;;;;7381823;19;20007;-75
2023/07/12 09:48:01;;;;;;;3.53;1.05;;;24.40;60.20;;;;;;7381190;19;20354;-75
2023/07/12 09:50:38;;;;;;;4.35;0.90;;;24.80;60.70;;;;;;7383643;19;20004;-75
2023/07/12 09:53:33;;;;;;;1.88;0.90;;;24.90;59.90;;;;;;7402163;19;20007;-75
2023/07/12 09:56:12;;;;;;;7.68;1.38;;;25.10;59.80;;;;;;7381130;19;20003;-75
2023/07/12 09:58:46;;;;;;;7.88;1.30;;;25.20;59.60;;;;;;7380983;19;20019;-75
2023/07/12 10:01:24;;;;;;;7.80;1.20;;;25.20;59.90;;;;;;7381440;19;20023;-75
2023/07/12 10:03:58;;;;;;;5.60;0.88;;;25.30;59.40;;;;;;7380978;19;20002;-76
2023/07/12 10:06:40;;;;;;;3.53;1.00;;;25.20;59.20;;;;;;7381931;19;20323;-75
2023/07/12 10:09:16;;;;;;;4.70;1.15;;;25.00;59.10;;;;;;7381812;19;20017;-75
2023/07/12 10:11:51;;;;;;;4.35;1.08;;;25.10;59.50;;;;;;7380171;19;20006;-75
2023/07/12 10:14:21;;;;;;;5.57;1.30;;;25.40;60.00;;;;;;7384642;19;20020;-75
2023/07/12 10:16:54;;;;;;;4.57;1.23;;;25.60;59.50;;;;;;7407227;19;20007;-75
2023/07/12 10:19:28;;;;;;;5.55;1.30;;;25.80;59.70;;;;;;7384813;19;20021;-75
2023/07/12 10:22:05;;;;;;;5.72;1.15;;;25.50;59.60;;;;;;7381402;19;20003;-75
2023/07/12 10:24:46;;;;;;;4.78;1.15;;;25.50;60.00;;;;;;7382396;19;20056;-75
2023/07/12 10:27:22;;;;;;;8.52;1.17;;;25.40;59.30;;;;;;7381315;19;20010;-76
2023/07/12 10:29:57;;;;;;;6.53;1.00;;;25.10;58.20;;;;;;7380197;19;20106;-75
2023/07/12 10:32:29;;;;;;;4.47;1.00;;;25.10;58.60;;;;;;7381110;19;20365;-75
2023/07/12 10:35:09;;;;;;;4.05;0.95;;;25.20;59.00;;;;;;7402499;19;20014;-74
2023/07/12 10:37:47;;;;;;;4.97;1.10;;;25.30;58.10;;;;;;7381201;19;20017;-75
2023/07/12 10:40:23;;;;;;;4.10;0.93;;;25.20;57.90;;;;;;7382089;19;19998;-76
2023/07/12 10:42:56;;;;;;;5.85;1.10;;;25.40;57.50;;;;;;7399164;19;20420;-75
2023/07/12 10:45:34;;;;;;;3.03;0.90;;;25.40;57.30;;;;;;7380845;19;20007;-75
2023/07/12 10:48:04;;;;;;;3.88;1.05;;;25.40;57.00;;;;;;7379453;19;20012;-75
2023/07/12 10:50:38;;;;;;;3.58;0.82;;;25.60;57.50;;;;;;7378871;19;20033;-75
2023/07/12 10:53:17;;;;;;;5.85;1.23;;;25.70;57.00;;;;;;7401123;19;20011;-75
2023/07/12 10:56:06;;;;;;;4.35;0.73;;;25.50;56.10;;;;;;7380004;19;20010;-75
2023/07/12 10:58:51;;;;;;;5.00;1.20;;;25.30;56.30;;;;;;7401672;19;20010;-75
2023/07/12 11:01:40;;;;;;;4.90;1.30;;;25.40;57.90;;;;;;7390779;19;20264;-75
2023/07/12 11:04:11;;;;;;;4.60;1.15;;;25.60;57.10;;;;;;7383852;19;20401;-75
2023/07/12 11:06:57;;;;;;;6.43;1.30;;;25.90;56.30;;;;;;7384343;19;20020;-75
2023/07/12 11:09:27;;;;;;;5.65;1.23;;;26.10;56.30;;;;;;7381141;19;20010;-76
2023/07/12 11:12:09;;;;;;;4.83;0.90;;;26.30;56.40;;;;;;7382689;19;20354;-75
2023/07/12 11:14:52;;;;;;;5.78;1.35;;;26.40;56.20;;;;;;7378423;19;20228;-74
2023/07/12 11:17:24;;;;;;;4.45;1.08;;;26.40;55.90;;;;;;7379607;19;20006;-75
2023/07/12 11:20:10;;;;;;;3.60;1.00;;;26.40;55.90;;;;;;7404869;19;20010;-74
2023/07/12 11:22:58;;;;;;;6.30;1.10;;;26.10;56.20;;;;;;7382636;19;20003;-75
2023/07/12 11:25:35;;;;;;;4.88;0.90;;;26.30;55.10;;;;;;7380484;19;20003;-75
2023/07/12 11:28:25;;;;;;;4.03;1.00;;;26.30;55.40;;;;;;7378594;19;20006;-74
2023/07/12 11:31:18;;;;;;;6.15;0.95;;;26.40;54.80;;;;;;7380058;19;20010;-74
2023/07/12 11:33:51;;;;;;;5.43;1.10;;;26.40;54.70;;;;;;7377947;19;20394;-74
2023/07/12 11:36:24;;;;;;;8.15;1.00;;;26.40;55.10;;;;;;7379560;19;20003;-74
2023/07/12 11:38:54;;;;;;;4.28;1.10;;;26.40;55.00;;;;;;7377821;19;20003;-75
2023/07/12 11:41:26;;;;;;;2.15;1.10;;;26.40;54.90;;;;;;7377421;19;20023;-75
2023/07/12 11:44:05;;;;;;;2.20;0.90;;;26.40;54.90;;;;;;7401275;19;20054;-75
2023/07/12 11:46:42;;;;;;;8.88;1.38;;;26.50;55.30;;;;;;7378355;19;20014;-75
2023/07/12 11:49:17;;;;;;;5.55;1.45;;;26.00;56.20;;;;;;7377603;19;20066;-75
2023/07/12 11:51:48;;;;;;;1.23;0.65;;;25.90;56.10;;;;;;7377922;19;20011;-75
2023/07/12 11:54:21;;;;;;;4.45;1.50;;;25.90;56.00;;;;;;7377609;19;20007;-75
2023/07/12 11:56:52;;;;;;;6.93;1.40;;;26.00;56.70;;;;;;7378930;19;20051;-74
2023/07/12 11:59:26;;;;;;;4.03;1.40;;;26.20;56.80;;;;;;7377185;19;20413;-76
2023/07/12 12:01:55;;;;;;;12.65;1.27;;;26.00;55.60;;;;;;7397812;19;20393;-75
2023/07/12 12:04:26;;;;;;;5.90;1.23;;;26.30;55.90;;;;;;7377939;19;20007;-75
2023/07/12 12:07:00;;;;;;;3.60;1.10;;;26.50;54.70;;;;;;7381779;19;20007;-75
2023/07/12 12:09:33;;;;;;;4.30;1.13;;;26.60;54.20;;;;;;7382331;19;20006;-75
2023/07/12 12:12:03;;;;;;;3.65;1.30;;;26.60;54.40;;;;;;7381798;19;20413;-75
2023/07/12 12:14:41;;;;;;;2.57;0.97;;;26.60;54.30;;;;;;7379217;19;20390;-75
2023/07/12 12:17:19;;;;;;;9.20;2.92;;;26.70;54.50;;;;;;7395179;19;20015;-75
2023/07/12 12:19:51;;;;;;;5.93;4.03;;;26.80;54.10;;;;;;7404379;19;20009;-75
2023/07/12 12:22:24;;;;;;;8.00;1.30;;;27.00;54.50;;;;;;7385068;19;20006;-75
2023/07/12 12:24:57;;;;;;;6.38;1.23;;;27.00;53.90;;;;;;7387597;19;20058;-75
2023/07/12 12:27:42;;;;;;;4.47;1.30;;;26.70;53.70;;;;;;7389156;19;20004;-74
2023/07/12 12:30:22;;;;;;;4.72;1.20;;;26.70;54.30;;;;;;7385129;19;20007;-75
2023/07/12 12:33:05;;;;;;;6.57;1.33;;;26.90;53.80;;;;;;7384862;19;20018;-75
2023/07/12 12:35:47;;;;;;;4.57;1.20;;;26.80;53.20;;;;;;7384903;19;20072;-75
2023/07/12 12:38:22;;;;;;;3.72;0.95;;;26.60;53.20;;;;;;7386659;19;20023;-75
2023/07/12 12:40:57;;;;;;;1.65;0.90;;;26.60;53.50;;;;;;7408793;19;20075;-75
2023/07/12 12:43:26;;;;;;;5.63;1.10;;;26.80;53.60;;;;;;7390827;19;20013;-75
2023/07/12 12:46:00;;;;;;;3.33;1.02;;;26.90;53.10;;;;;;7391003;19;20057;-75
2023/07/12 12:48:28;;;;;;;6.68;1.10;;;27.10;53.20;;;;;;7391733;19;20006;-75
2023/07/12 12:50:59;;;;;;;3.70;1.10;;;27.20;52.50;;;;;;7390984;19;20011;-75
2023/07/12 12:53:27;;;;;;;7.63;1.35;;;27.40;52.30;;;;;;7390795;19;20017;-76
2023/07/12 12:55:56;;;;;;;7.22;1.30;;;27.50;51.80;;;;;;7410740;19;20378;-77
2023/07/12 12:58:25;;;;;;;6.50;1.17;;;27.70;52.40;;;;;;7385901;19;20442;-75
2023/07/12 13:00:54;;;;;;;3.42;1.17;;;28.10;51.50;;;;;;7386162;19;20020;-75
2023/07/12 13:03:25;;;;;;;17.00;1.45;;;28.10;50.90;;;;;;7387306;19;20017;-76
2023/07/12 13:05:55;;;;;;;6.03;1.17;;;28.20;50.80;;;;;;7386822;19;20011;-74
2023/07/12 13:08:24;;;;;;;7.78;1.13;;;28.10;50.80;;;;;;7389778;19;20007;-74
2023/07/12 13:10:55;;;;;;;2.85;1.17;;;28.10;50.60;;;;;;7414111;19;20023;-74
2023/07/12 13:13:23;;;;;;;;;;;28.10;50.90;;;;;;7404549;19;20030;-74
2023/07/12 13:15:52;;;;;;;2.47;1.05;;;28.20;50.50;;;;;;7395149;19;19911;-75